createdAt,value
2023-05-14T00:02:16.402Z,7.82
2023-05-14T00:04:43.545Z,10.75
2023-05-14T00:07:10.556Z,12.40
2023-05-14T00:09:37.663Z,8.20
2023-05-14T00:12:05.097Z,11.00
2023-05-14T00:14:32.143Z,8.30
2023-05-14T00:16:59.920Z,8.95
2023-05-14T00:19:27.174Z,8.45
2023-05-14T00:21:54.122Z,10.45
2023-05-14T00:24:21.084Z,13.23
2023-05-14T00:26:48.097Z,11.77
2023-05-14T00:29:15.061Z,10.02
2023-05-14T00:31:42.078Z,10.93
2023-05-14T00:34:09.084Z,9.73
2023-05-14T00:36:36.053Z,11.43
2023-05-14T00:39:03.889Z,11.50
2023-05-14T00:41:30.964Z,10.02
2023-05-14T00:43:57.935Z,8.38
2023-05-14T00:46:25.021Z,9.38
2023-05-14T00:48:52.204Z,8.48
2023-05-14T00:51:19.820Z,10.20
2023-05-14T00:53:47.289Z,8.70
2023-05-14T00:56:15.303Z,7.78
2023-05-14T00:58:42.268Z,9.32
2023-05-14T01:01:09.551Z,8.43
2023-05-14T01:03:36.751Z,12.07
2023-05-14T01:06:21.708Z,9.68
2023-05-14T01:09:24.536Z,10.50
2023-05-14T01:12:03.322Z,9.18
2023-05-14T01:14:41.247Z,13.98
2023-05-14T01:17:12.276Z,12.85
2023-05-14T01:19:44.613Z,10.30
2023-05-14T01:22:12.125Z,8.10
2023-05-14T01:24:39.521Z,9.38
2023-05-14T01:27:22.032Z,12.48
2023-05-14T01:30:10.717Z,9.40
2023-05-14T01:32:39.581Z,10.52
2023-05-14T01:35:08.165Z,10.52
2023-05-14T01:37:36.672Z,9.25
2023-05-14T01:40:04.723Z,11.30
2023-05-14T01:42:32.796Z,8.50
2023-05-14T01:45:00.026Z,7.72
2023-05-14T01:47:27.092Z,8.85
2023-05-14T01:49:54.084Z,10.70
2023-05-14T01:52:21.473Z,9.20
2023-05-14T01:54:48.796Z,8.77
2023-05-14T01:57:15.800Z,11.18
2023-05-14T01:59:42.795Z,11.65
2023-05-14T02:02:09.843Z,11.30
2023-05-14T02:04:36.854Z,9.10
2023-05-14T02:07:03.834Z,11.18
2023-05-14T02:09:30.987Z,12.43
2023-05-14T02:11:57.990Z,8.77
2023-05-14T02:14:24.962Z,12.32
2023-05-14T02:16:51.910Z,10.30
2023-05-14T02:19:19.029Z,10.07
2023-05-14T02:21:46.079Z,10.00
2023-05-14T02:24:13.039Z,8.43
2023-05-14T02:26:40.074Z,11.32
2023-05-14T02:29:07.058Z,9.75
2023-05-14T02:31:34.448Z,9.30
2023-05-14T02:34:02.288Z,10.68
2023-05-14T02:36:29.264Z,8.35
2023-05-14T02:38:57.336Z,10.52
2023-05-14T02:41:24.370Z,10.60
2023-05-14T02:43:52.521Z,11.73
2023-05-14T02:46:19.764Z,12.02
2023-05-14T02:48:46.718Z,11.70
2023-05-14T02:51:13.783Z,9.48
2023-05-14T02:53:40.735Z,9.07
2023-05-14T02:56:08.321Z,13.15
2023-05-14T02:58:35.475Z,12.50
2023-05-14T03:01:02.531Z,13.40
2023-05-14T03:03:30.906Z,13.05
2023-05-14T03:05:58.503Z,10.48
2023-05-14T03:08:25.914Z,12.70
2023-05-14T03:10:52.908Z,12.23
2023-05-14T03:13:20.961Z,11.15
2023-05-14T03:15:48.072Z,12.23
2023-05-14T03:18:15.247Z,13.23
2023-05-14T03:20:42.510Z,9.93
2023-05-14T03:23:09.626Z,12.02
2023-05-14T03:25:36.584Z,13.15
2023-05-14T03:28:04.249Z,10.27
2023-05-14T03:30:31.325Z,12.63
2023-05-14T03:32:58.750Z,12.48
2023-05-14T03:35:25.874Z,13.27
2023-05-14T03:37:53.253Z,13.15
2023-05-14T03:40:23.425Z,12.27
2023-05-14T03:42:51.061Z,11.05
2023-05-14T03:45:18.033Z,11.90
2023-05-14T03:47:45.075Z,11.52
2023-05-14T03:50:12.069Z,12.73
2023-05-14T03:52:39.271Z,12.82
2023-05-14T03:55:06.803Z,11.30
2023-05-14T03:57:33.832Z,12.65
2023-05-14T04:00:00.834Z,10.88
2023-05-14T04:02:28.057Z,12.75
2023-05-14T04:04:55.129Z,10.07
2023-05-14T04:07:22.335Z,11.02
2023-05-14T04:09:49.366Z,13.23
2023-05-14T04:12:16.387Z,10.85
2023-05-14T04:14:43.464Z,12.88
2023-05-14T04:17:10.438Z,10.25
2023-05-14T04:19:37.494Z,12.40
2023-05-14T04:22:04.781Z,13.60
2023-05-14T04:24:31.806Z,11.13
2023-05-14T04:26:58.779Z,10.90
2023-05-14T04:29:25.885Z,11.52
2023-05-14T04:31:53.895Z,10.95
2023-05-14T04:34:20.874Z,9.80
2023-05-14T04:36:47.917Z,11.80
2023-05-14T04:39:15.167Z,11.82
2023-05-14T04:41:42.883Z,11.65
2023-05-14T04:44:09.856Z,10.75
2023-05-14T04:46:36.895Z,9.95
2023-05-14T04:49:04.384Z,9.57
2023-05-14T04:51:31.818Z,10.43
2023-05-14T04:53:58.886Z,10.23
2023-05-14T04:56:26.068Z,10.32
2023-05-14T04:58:53.048Z,10.70
2023-05-14T05:01:20.210Z,10.25
2023-05-14T05:03:47.275Z,9.55
2023-05-14T05:06:14.255Z,11.40
2023-05-14T05:08:41.680Z,9.30
2023-05-14T05:11:08.806Z,11.15
2023-05-14T05:13:36.032Z,8.88
2023-05-14T05:16:03.083Z,12.35
2023-05-14T05:18:30.205Z,9.02
2023-05-14T05:20:57.298Z,8.52
2023-05-14T05:23:24.347Z,10.40
2023-05-14T05:25:51.353Z,10.80
2023-05-14T05:28:18.336Z,9.60
2023-05-14T05:30:45.513Z,9.10
2023-05-14T05:33:13.024Z,10.18
2023-05-14T05:35:40.112Z,9.02
2023-05-14T05:38:07.414Z,10.70
2023-05-14T05:40:34.429Z,7.32
2023-05-14T05:43:01.442Z,7.43
2023-05-14T05:45:28.479Z,8.13
2023-05-14T05:47:55.509Z,9.13
2023-05-14T05:50:22.923Z,8.63
2023-05-14T05:52:50.265Z,8.75
2023-05-14T05:55:17.249Z,7.88
2023-05-14T05:57:44.253Z,8.52
2023-05-14T06:00:14.555Z,10.05
2023-05-14T06:02:41.987Z,8.07
2023-05-14T06:05:10.191Z,7.78
2023-05-14T06:07:37.231Z,8.02
2023-05-14T06:10:05.050Z,8.27
2023-05-14T06:12:32.116Z,8.32
2023-05-14T06:14:59.097Z,8.13
2023-05-14T06:17:26.243Z,6.90
2023-05-14T06:19:53.498Z,6.88
2023-05-14T06:22:20.574Z,7.97
2023-05-14T06:24:48.462Z,8.43
2023-05-14T06:27:15.570Z,7.35
2023-05-14T06:29:42.683Z,6.22
2023-05-14T06:32:10.438Z,8.30
2023-05-14T06:34:37.549Z,7.38
2023-05-14T06:37:04.810Z,7.15
2023-05-14T06:39:31.849Z,9.02
2023-05-14T06:41:58.838Z,6.45
2023-05-14T06:44:25.866Z,7.78
2023-05-14T06:46:52.969Z,10.30
2023-05-14T06:49:19.984Z,11.35
2023-05-14T06:51:47.320Z,17.92
2023-05-14T06:54:14.373Z,15.57
2023-05-14T06:56:41.382Z,12.25
2023-05-14T06:59:08.397Z,9.65
2023-05-14T07:01:35.471Z,6.47
2023-05-14T07:04:02.615Z,6.28
2023-05-14T07:06:29.633Z,5.80
2023-05-14T07:08:56.618Z,7.15
2023-05-14T07:11:23.671Z,6.18
2023-05-14T07:13:50.700Z,5.40
2023-05-14T07:16:17.810Z,6.63
2023-05-14T07:18:45.764Z,6.20
2023-05-14T07:21:12.835Z,8.07
2023-05-14T07:23:39.893Z,6.10
2023-05-14T07:26:08.164Z,5.47
2023-05-14T07:28:35.226Z,5.47
2023-05-14T07:31:09.226Z,7.97
2023-05-14T07:33:36.742Z,6.13
2023-05-14T07:36:03.983Z,7.55
2023-05-14T07:38:31.301Z,4.93
2023-05-14T07:40:58.658Z,5.35
2023-05-14T07:43:26.198Z,5.63
2023-05-14T07:45:53.337Z,6.70
2023-05-14T07:48:20.479Z,5.80
2023-05-14T07:50:48.915Z,6.53
2023-05-14T07:53:16.050Z,6.38
2023-05-14T07:55:44.957Z,13.43
2023-05-14T07:58:12.002Z,7.85
2023-05-14T08:00:39.327Z,7.70
2023-05-14T08:03:06.811Z,6.63
2023-05-14T08:05:33.969Z,6.45
2023-05-14T08:08:01.019Z,5.55
2023-05-14T08:10:28.313Z,6.07
2023-05-14T08:12:55.489Z,5.35
2023-05-14T08:15:25.179Z,4.40
2023-05-14T08:17:54.180Z,8.23
2023-05-14T08:20:21.312Z,6.85
2023-05-14T08:22:48.531Z,4.70
2023-05-14T08:25:15.486Z,4.90
2023-05-14T08:27:42.554Z,6.40
2023-05-14T08:30:09.818Z,5.15
2023-05-14T08:32:38.828Z,5.78
2023-05-14T08:35:06.958Z,5.68
2023-05-14T08:37:34.003Z,6.10
2023-05-14T08:40:01.091Z,5.97
2023-05-14T08:42:28.960Z,5.95
2023-05-14T08:45:03.802Z,4.45
2023-05-14T08:47:31.528Z,4.68
2023-05-14T08:50:06.670Z,6.20
2023-05-14T08:52:34.989Z,5.07
2023-05-14T08:55:05.813Z,5.28
2023-05-14T08:57:34.429Z,4.82
2023-05-14T09:00:07.506Z,7.10
2023-05-14T09:02:36.093Z,4.85
2023-05-14T09:05:04.285Z,7.35
2023-05-14T09:07:31.922Z,5.05
2023-05-14T09:09:59.448Z,7.70
2023-05-14T09:12:26.528Z,4.35
2023-05-14T09:14:56.454Z,6.85
2023-05-14T09:17:26.091Z,5.85
2023-05-14T09:19:53.426Z,3.78
2023-05-14T09:22:21.215Z,5.28
2023-05-14T09:25:06.183Z,8.70
2023-05-14T09:27:33.605Z,6.05
2023-05-14T09:30:13.586Z,9.07
2023-05-14T09:32:44.329Z,5.95
2023-05-14T09:35:17.755Z,5.13
2023-05-14T09:37:50.193Z,5.85
2023-05-14T09:40:18.724Z,6.00
2023-05-14T09:42:46.033Z,5.57
2023-05-14T09:45:13.078Z,5.45
2023-05-14T09:47:40.424Z,7.53
2023-05-14T09:50:08.409Z,6.47
2023-05-14T09:52:36.094Z,7.38
2023-05-14T09:55:03.382Z,6.80
2023-05-14T09:57:30.459Z,7.40
2023-05-14T09:59:57.523Z,4.90
2023-05-14T10:02:26.633Z,5.18
2023-05-14T10:04:54.889Z,9.00
2023-05-14T10:07:33.799Z,5.15
2023-05-14T10:10:03.987Z,4.35
2023-05-14T10:12:34.983Z,5.78
2023-05-14T10:15:07.053Z,5.93
2023-05-14T10:17:36.947Z,6.32
2023-05-14T10:20:05.960Z,4.43
2023-05-14T10:22:35.320Z,5.85
2023-05-14T10:25:04.135Z,5.10
2023-05-14T10:27:32.138Z,4.60
2023-05-14T10:29:59.208Z,5.25
2023-05-14T10:32:26.681Z,5.00
2023-05-14T10:34:54.182Z,5.80
2023-05-14T10:37:27.394Z,4.25
2023-05-14T10:39:59.171Z,4.75
2023-05-14T10:42:28.715Z,4.35
2023-05-14T10:45:02.001Z,5.15
2023-05-14T10:49:58.910Z,5.80
2023-05-14T10:52:27.051Z,5.20
2023-05-14T10:55:00.644Z,4.22
2023-05-14T10:57:31.792Z,3.55
2023-05-14T11:00:00.707Z,4.07
2023-05-14T11:02:37.378Z,4.63
2023-05-14T11:05:08.423Z,5.38
2023-05-14T11:07:40.486Z,5.50
2023-05-14T11:10:09.601Z,3.72
2023-05-14T11:12:39.263Z,6.28
2023-05-14T11:15:09.595Z,6.75
2023-05-14T11:17:37.602Z,5.10
2023-05-14T11:20:06.655Z,4.63
2023-05-14T11:22:37.896Z,6.57
2023-05-14T11:25:06.500Z,3.83
2023-05-14T11:27:39.646Z,3.97
2023-05-14T11:30:14.340Z,4.45
2023-05-14T11:32:42.057Z,6.38
2023-05-14T11:35:09.326Z,8.07
2023-05-14T11:37:36.429Z,5.90
2023-05-14T11:40:14.123Z,5.45
2023-05-14T11:42:41.235Z,4.93
2023-05-14T11:45:12.281Z,8.13
2023-05-14T11:47:41.490Z,5.57
2023-05-14T11:50:09.847Z,5.93
2023-05-14T11:52:41.509Z,5.75
2023-05-14T11:55:12.968Z,4.13
2023-05-14T11:57:41.232Z,5.28
2023-05-14T12:00:21.553Z,4.32
2023-05-14T12:02:50.307Z,5.90
2023-05-14T12:05:17.566Z,5.38
2023-05-14T12:07:45.463Z,5.00
2023-05-14T12:10:13.219Z,6.47
2023-05-14T12:12:40.196Z,4.78
2023-05-14T12:15:14.690Z,4.78
2023-05-14T12:17:42.367Z,4.75
2023-05-14T12:20:11.185Z,5.82
2023-05-14T12:25:13.517Z,4.82
2023-05-14T12:27:40.769Z,5.38
2023-05-14T12:32:41.300Z,5.57
2023-05-14T12:35:09.295Z,5.65
2023-05-14T12:37:37.652Z,4.35
2023-05-14T12:40:09.482Z,6.30
2023-05-14T12:43:23.194Z,4.53
2023-05-14T12:45:50.175Z,4.70
2023-05-14T12:48:17.237Z,5.40
2023-05-14T12:50:44.190Z,6.97
2023-05-14T12:53:11.260Z,3.60
2023-05-14T12:55:38.286Z,5.65
2023-05-14T12:58:05.300Z,5.35
2023-05-14T13:00:32.303Z,5.07
2023-05-14T13:02:59.301Z,3.70
2023-05-14T13:05:26.511Z,5.40
2023-05-14T13:07:53.987Z,8.98
2023-05-14T13:10:21.113Z,5.20
2023-05-14T13:12:48.174Z,5.07
2023-05-14T13:15:15.236Z,7.45
2023-05-14T13:17:42.339Z,5.90
2023-05-14T13:20:09.951Z,6.28
2023-05-14T13:22:36.959Z,7.25
2023-05-14T13:25:04.519Z,4.40
2023-05-14T13:27:31.759Z,4.45
2023-05-14T13:29:58.786Z,5.28
2023-05-14T13:32:26.111Z,4.78
2023-05-14T13:34:53.160Z,4.75
2023-05-14T13:37:20.210Z,5.15
2023-05-14T13:39:48.009Z,3.97
2023-05-14T13:42:16.095Z,7.28
2023-05-14T13:44:43.072Z,5.80
2023-05-14T13:47:10.606Z,6.20
2023-05-14T13:49:37.570Z,6.13
2023-05-14T13:52:05.003Z,5.18
2023-05-14T13:54:32.020Z,4.88
2023-05-14T13:56:59.077Z,4.32
2023-05-14T13:59:26.378Z,4.35
2023-05-14T14:01:53.522Z,5.55
2023-05-14T14:04:20.727Z,6.00
2023-05-14T14:06:47.738Z,5.07
2023-05-14T14:09:14.903Z,6.20
2023-05-14T14:11:41.931Z,5.38
2023-05-14T14:14:08.965Z,4.97
2023-05-14T14:16:36.393Z,6.18
2023-05-14T14:19:03.587Z,6.35
2023-05-14T14:21:31.296Z,5.40
2023-05-14T14:23:58.420Z,4.65
2023-05-14T14:26:25.523Z,4.97
2023-05-14T14:28:52.503Z,6.30
2023-05-14T14:31:20.880Z,6.93
2023-05-14T14:33:47.898Z,6.45
2023-05-14T14:36:14.970Z,6.32
2023-05-14T14:38:42.154Z,5.68
2023-05-14T14:41:10.323Z,6.97
2023-05-14T14:43:40.370Z,6.85
2023-05-14T14:46:09.389Z,6.25
2023-05-14T14:48:39.292Z,5.25
2023-05-14T14:51:07.425Z,5.53
2023-05-14T14:53:35.836Z,6.40
2023-05-14T14:56:03.641Z,5.82
2023-05-14T14:58:31.346Z,5.43
2023-05-14T15:00:58.862Z,5.45
2023-05-14T15:03:26.469Z,7.60
2023-05-14T15:05:53.953Z,5.35
2023-05-14T15:08:26.527Z,4.68
2023-05-14T15:10:55.067Z,6.53
2023-05-14T15:13:22.286Z,5.82
2023-05-14T15:15:50.976Z,4.03
2023-05-14T15:18:18.104Z,5.15
2023-05-14T15:20:45.207Z,5.85
2023-05-14T15:23:12.214Z,5.03
2023-05-14T15:25:39.323Z,5.57
2023-05-14T15:28:07.801Z,4.45
2023-05-14T15:30:35.284Z,6.85
2023-05-14T15:33:02.406Z,6.13
2023-05-14T15:35:29.486Z,4.65
2023-05-14T15:37:57.492Z,5.80
2023-05-14T15:40:24.961Z,6.18
2023-05-14T15:42:52.196Z,7.18
2023-05-14T15:45:19.364Z,5.82
2023-05-14T15:47:46.460Z,7.45
2023-05-14T15:50:13.520Z,6.25
2023-05-14T15:52:41.645Z,6.60
2023-05-14T15:55:09.069Z,4.80
2023-05-14T15:57:36.137Z,5.05
2023-05-14T16:00:13.080Z,5.32
2023-05-14T16:02:40.426Z,5.07
2023-05-14T16:05:08.553Z,4.30
2023-05-14T16:07:36.464Z,7.60
2023-05-14T16:10:04.077Z,5.15
2023-05-14T16:12:31.228Z,4.85
2023-05-14T16:14:58.596Z,6.32
2023-05-14T16:17:27.835Z,6.28
2023-05-14T16:19:56.253Z,6.03
2023-05-14T16:22:23.703Z,5.88
2023-05-14T16:24:50.970Z,5.78
2023-05-14T16:27:19.294Z,5.15
2023-05-14T16:29:46.368Z,7.93
2023-05-14T16:32:13.643Z,8.13
2023-05-14T16:34:40.911Z,6.88
2023-05-14T16:37:08.252Z,6.22
2023-05-14T16:39:35.249Z,6.43
2023-05-14T16:42:02.204Z,9.75
2023-05-14T16:44:29.281Z,6.43
2023-05-14T16:46:56.501Z,7.00
2023-05-14T16:49:23.611Z,6.03
2023-05-14T16:51:50.720Z,6.35
2023-05-14T16:54:17.730Z,5.05
2023-05-14T16:56:48.360Z,6.72
2023-05-14T16:59:16.186Z,7.07
2023-05-14T17:01:44.405Z,7.60
2023-05-14T17:04:11.558Z,5.20
2023-05-14T17:06:38.643Z,8.40
2023-05-14T17:09:07.008Z,6.72
2023-05-14T17:11:34.059Z,9.63
2023-05-14T17:14:01.191Z,8.40
2023-05-14T17:16:28.777Z,6.97
2023-05-14T17:18:56.008Z,7.93
2023-05-14T17:21:23.101Z,6.70
2023-05-14T17:23:50.331Z,6.00
2023-05-14T17:26:17.375Z,5.10
2023-05-14T17:28:44.483Z,6.95
2023-05-14T17:31:11.534Z,7.70
2023-05-14T17:33:38.688Z,8.25
2023-05-14T17:36:05.886Z,8.18
2023-05-14T17:38:32.856Z,6.72
2023-05-14T17:40:59.909Z,6.75
2023-05-14T17:43:26.963Z,6.65
2023-05-14T17:45:54.882Z,5.97
2023-05-14T17:48:23.284Z,5.32
2023-05-14T17:50:51.828Z,8.73
2023-05-14T17:53:18.977Z,6.00
2023-05-14T17:55:46.011Z,5.32
2023-05-14T17:58:15.604Z,7.70
2023-05-14T18:00:43.750Z,9.05
2023-05-14T18:03:11.708Z,5.38
2023-05-14T18:05:39.408Z,5.78
2023-05-14T18:08:06.588Z,4.72
2023-05-14T18:10:33.574Z,7.22
2023-05-14T18:13:00.915Z,11.15
2023-05-14T18:15:28.063Z,6.88
2023-05-14T18:17:55.377Z,7.47
2023-05-14T18:20:22.652Z,5.50
2023-05-14T18:22:50.845Z,7.75
2023-05-14T18:25:18.212Z,6.13
2023-05-14T18:27:45.704Z,6.45
2023-05-14T18:30:15.264Z,9.38
2023-05-14T18:32:44.613Z,6.28
2023-05-14T18:35:12.961Z,7.28
2023-05-14T18:37:41.247Z,7.88
2023-05-14T18:40:09.840Z,9.13
2023-05-14T18:42:37.352Z,8.70
2023-05-14T18:45:05.327Z,9.75
2023-05-14T18:47:33.821Z,10.15
2023-05-14T18:50:02.246Z,9.80
2023-05-14T18:52:30.041Z,8.65
2023-05-14T18:54:57.707Z,13.10
2023-05-14T18:57:27.506Z,12.35
2023-05-14T18:59:54.978Z,12.30
2023-05-14T19:02:22.270Z,9.50
2023-05-14T19:04:52.656Z,8.82
2023-05-14T19:07:21.925Z,8.48
2023-05-14T19:09:49.360Z,8.20
2023-05-14T19:12:17.116Z,8.10
2023-05-14T19:14:44.311Z,11.32
2023-05-14T19:17:11.887Z,9.93
2023-05-14T19:19:39.867Z,9.65
2023-05-14T19:22:07.493Z,8.45
2023-05-14T19:24:34.844Z,8.32
2023-05-14T19:27:01.933Z,8.85
2023-05-14T19:29:29.262Z,7.97
2023-05-14T19:31:56.403Z,9.88
2023-05-14T19:34:23.624Z,8.25
2023-05-14T19:36:50.980Z,9.55
2023-05-14T19:39:17.988Z,9.43
2023-05-14T19:41:45.381Z,11.15
2023-05-14T19:44:12.431Z,15.13
2023-05-14T19:46:40.642Z,9.82
2023-05-14T19:49:07.652Z,8.98
2023-05-14T19:51:34.696Z,10.15
2023-05-14T19:54:01.670Z,8.52
2023-05-14T19:56:29.089Z,9.23
2023-05-14T19:58:56.330Z,10.32
2023-05-14T20:01:23.406Z,14.75
2023-05-14T20:03:50.569Z,9.13
2023-05-14T20:06:17.689Z,9.52
2023-05-14T20:08:45.549Z,7.97
2023-05-14T20:11:12.822Z,8.75
2023-05-14T20:13:39.763Z,9.82
2023-05-14T20:16:06.898Z,8.55
2023-05-14T20:18:33.989Z,7.97
2023-05-14T20:21:01.430Z,11.55
2023-05-14T20:23:28.654Z,8.68
2023-05-14T20:25:55.844Z,8.65
2023-05-14T20:28:22.793Z,6.45
2023-05-14T20:30:49.828Z,7.18
2023-05-14T20:33:17.151Z,8.05
2023-05-14T20:35:44.345Z,7.65
2023-05-14T20:38:13.014Z,9.80
2023-05-14T20:40:40.500Z,7.10
2023-05-14T20:43:07.558Z,9.60
2023-05-14T20:45:34.590Z,7.88
2023-05-14T20:48:01.785Z,9.05
2023-05-14T20:50:28.959Z,7.88
2023-05-14T20:52:55.962Z,8.30
2023-05-14T20:55:23.540Z,7.13
2023-05-14T20:57:50.939Z,6.72
2023-05-14T21:00:18.462Z,7.03
2023-05-14T21:02:45.862Z,9.73
2023-05-14T21:05:14.285Z,8.70
2023-05-14T21:07:41.333Z,7.18
2023-05-14T21:10:09.588Z,6.75
2023-05-14T21:12:36.684Z,9.55
2023-05-14T21:15:03.968Z,7.00
2023-05-14T21:17:31.114Z,8.07
2023-05-14T21:19:58.149Z,10.50
2023-05-14T21:22:25.357Z,7.57
2023-05-14T21:24:52.380Z,7.28
2023-05-14T21:27:19.432Z,8.60
2023-05-14T21:29:46.784Z,7.93
2023-05-14T21:32:13.972Z,8.13
2023-05-14T21:34:40.977Z,7.45
2023-05-14T21:37:08.007Z,7.00
2023-05-14T21:39:35.202Z,7.68
2023-05-14T21:42:02.322Z,8.10
2023-05-14T21:44:29.338Z,6.25
2023-05-14T21:46:56.455Z,7.88
2023-05-14T21:49:23.754Z,9.48
2023-05-14T21:51:53.273Z,8.63
2023-05-14T21:54:21.107Z,9.05
2023-05-14T21:56:48.320Z,9.57
2023-05-14T21:59:15.413Z,11.02
2023-05-14T22:02:00.718Z,8.25
2023-05-14T22:04:30.056Z,9.05
2023-05-14T22:06:57.043Z,8.57
2023-05-14T22:09:24.122Z,7.53
2023-05-14T22:11:51.123Z,6.68
2023-05-14T22:14:18.337Z,9.63
2023-05-14T22:16:45.390Z,9.38
2023-05-14T22:19:12.541Z,6.82
2023-05-14T22:21:39.561Z,8.15
2023-05-14T22:24:06.893Z,8.25
2023-05-14T22:26:35.018Z,9.23
2023-05-14T22:29:02.035Z,10.00
2023-05-14T22:31:30.160Z,11.35
2023-05-14T22:33:57.175Z,9.68
2023-05-14T22:36:24.145Z,10.38
2023-05-14T22:38:51.202Z,11.75
2023-05-14T22:41:18.400Z,9.68
2023-05-14T22:43:48.826Z,7.95
2023-05-14T22:46:16.274Z,10.25
2023-05-14T22:48:43.394Z,8.95
2023-05-14T22:51:10.524Z,11.13
2023-05-14T22:53:37.553Z,8.57
2023-05-14T22:56:04.907Z,8.68
2023-05-14T22:58:31.959Z,8.15
2023-05-14T23:00:59.099Z,9.52
2023-05-14T23:03:26.186Z,10.18
2023-05-14T23:05:53.522Z,8.10
2023-05-14T23:08:20.653Z,7.78
2023-05-14T23:10:47.705Z,7.57
2023-05-14T23:13:14.824Z,9.50
2023-05-14T23:15:44.089Z,7.63
2023-05-14T23:18:11.165Z,7.57
2023-05-14T23:20:38.156Z,9.27
2023-05-14T23:23:06.538Z,9.88
2023-05-14T23:25:33.594Z,9.55
2023-05-14T23:28:00.786Z,8.73
2023-05-14T23:30:27.886Z,11.07
2023-05-14T23:32:54.948Z,9.65
2023-05-14T23:35:22.136Z,10.40
2023-05-14T23:37:51.095Z,9.10
2023-05-14T23:40:18.350Z,9.43
2023-05-14T23:42:45.439Z,13.02
2023-05-14T23:45:13.524Z,9.60
2023-05-14T23:47:41.389Z,9.40
2023-05-14T23:50:08.667Z,10.55
2023-05-14T23:52:35.697Z,9.98
2023-05-14T23:55:02.785Z,9.48
2023-05-14T23:57:29.995Z,8.80
2023-05-14T23:59:57.203Z,9.57
